Time;durP1;ratioP1;P1;durP2;ratioP2;P2;SDS_P1;SDS_P2;PMS_P1;PMS_P2;Temp;Humidity;BMP_temperature;BMP_pressure;BME280_temperature;BME280_humidity;BME280_pressure;Samples;Min_cycle;Max_cycle;Signal;HPM_P1;HPM_P2
2021/12/04 00:01:52;;;;;;;;;0.75;0.75;;;;;10.57;82.07;99531.25;4960836;28;45508;-69
2021/12/04 00:04:22;;;;;;;;;2.00;0.00;;;;;10.63;82.74;99527.75;4965433;28;45342;-69
2021/12/04 00:06:49;;;;;;;;;0.00;0.00;;;;;10.69;81.55;99512.78;4972505;28;45414;-69
2021/12/04 00:09:17;;;;;;;;;0.00;0.00;;;;;10.73;81.83;99514.56;4986016;28;46014;-69
2021/12/04 00:11:51;;;;;;;;;0.00;0.00;;;;;10.81;81.42;99506.66;4959021;28;46306;-69
2021/12/04 00:14:18;;;;;;;;;0.00;0.00;;;;;10.81;81.16;99497.84;4967445;28;45395;-69
2021/12/04 00:16:43;;;;;;;;;0.00;0.00;;;;;10.88;82.47;99492.56;4961146;28;45543;-69
2021/12/04 00:19:09;;;;;;;;;0.00;0.00;;;;;10.92;81.64;99486.44;4967367;28;45328;-69
2021/12/04 00:21:34;;;;;;;;;0.00;0.00;;;;;11.03;81.63;99485.53;4960451;28;45629;-69
2021/12/04 00:23:59;;;;;;;;;2.00;0.00;;;;;11.04;82.71;99482.91;4967477;28;45335;-69
2021/12/04 00:26:25;;;;;;;;;0.00;0.00;;;;;11.05;81.80;99474.09;4959722;28;45717;-68
2021/12/04 00:28:50;;;;;;;;;0.00;0.00;;;;;11.13;82.37;99484.69;4968842;28;45343;-68
2021/12/04 00:31:15;;;;;;;;;1.00;0.00;;;;;11.16;81.15;99479.38;4958701;28;45502;-68
2021/12/04 00:33:44;;;;;;;;;0.00;0.00;;;;;11.14;81.02;99470.56;4964197;28;45314;-68
2021/12/04 00:36:21;;;;;;;;;1.00;0.00;;;;;11.24;81.20;99480.28;4976112;28;45193;-68
2021/12/04 00:49:54;;;;;;;;;0.00;0.00;;;;;11.46;82.32;99467.06;4958539;28;45325;-68
2021/12/04 00:52:19;;;;;;;;;0.00;0.00;;;;;11.40;81.79;99452.94;4963892;28;47182;-68
2021/12/04 00:54:45;;;;;;;;;0.00;0.00;;;;;11.54;81.37;99467.91;4957745;28;45238;-68
2021/12/04 00:57:11;;;;;;;;;0.00;0.00;;;;;11.57;81.93;99463.50;4959696;28;45469;-69
2021/12/04 00:59:37;;;;;;;;;0.00;0.00;;;;;11.61;81.62;99467.03;4964964;28;47209;-68
2021/12/04 01:02:02;;;;;;;;;0.00;0.00;;;;;11.64;81.66;99467.91;4960529;28;45289;-68
2021/12/04 01:04:27;;;;;;;;;0.00;0.00;;;;;11.68;80.87;99459.94;4958368;28;45337;-68
2021/12/04 01:06:53;;;;;;;;;0.00;0.00;;;;;11.73;81.35;99464.34;4960532;28;45548;-68
2021/12/04 01:09:22;;;;;;;;;0.00;0.00;;;;;11.69;81.12;99440.56;4991229;28;46055;-68
2021/12/04 01:11:48;;;;;;;;;1.00;0.00;;;;;11.79;81.59;99467.00;4974220;28;45543;-68
2021/12/04 01:14:16;;;;;;;;;0.00;0.00;;;;;11.75;81.04;99459.94;4966398;28;45280;-68
2021/12/04 01:16:41;;;;;;;;;0.00;0.00;;;;;11.79;80.76;99453.78;4975412;28;45496;-68
2021/12/04 01:19:07;;;;;;;;;0.00;0.00;;;;;11.83;80.94;99462.56;4966698;28;45366;-68
2021/12/04 01:21:33;;;;;;;;;0.00;0.00;;;;;11.86;81.10;99463.47;4959299;28;45648;-69
2021/12/04 01:23:58;;;;;;;;;1.00;0.00;;;;;11.80;81.65;99457.28;4967013;28;45359;-68
2021/12/04 01:26:24;;;;;;;;;0.00;0.00;;;;;11.83;81.50;99457.28;4958624;28;45265;-68
2021/12/04 01:28:50;;;;;;;;;0.00;0.00;;;;;11.89;81.58;99465.25;4968365;28;45328;-69
2021/12/04 01:31:16;;;;;;;;;0.00;0.00;;;;;11.90;81.49;99471.41;4958066;28;45611;-68
2021/12/04 01:33:41;;;;;;;;;0.00;0.00;;;;;11.82;81.36;99459.06;4968442;28;45316;-68
2021/12/04 01:36:06;;;;;;;;;0.00;0.00;;;;;11.77;81.45;99452.00;4957863;28;45419;-68
2021/12/04 01:38:32;;;;;;;;;0.00;0.00;;;;;11.85;81.29;99466.13;4960060;28;45333;-68
2021/12/04 01:40:58;;;;;;;;;0.00;0.00;;;;;11.88;81.50;99482.03;4973912;28;47154;-68
2021/12/04 01:43:24;;;;;;;;;0.00;0.00;;;;;11.88;81.66;99468.78;4968786;28;45375;-68
2021/12/04 01:45:52;;;;;;;;;0.00;0.00;;;;;11.85;82.00;99466.13;4980548;28;45316;-69
2021/12/04 01:48:17;;;;;;;;;0.00;0.00;;;;;11.84;82.20;99465.19;4971845;28;45267;-68
2021/12/04 01:50:43;;;;;;;;;0.00;0.00;;;;;11.86;81.61;99466.13;4957741;28;45341;-69
2021/12/04 01:53:08;;;;;;;;;0.00;0.00;;;;;11.87;82.04;99472.28;4959810;28;45256;-69
2021/12/04 01:55:36;;;;;;;;;0.00;0.00;;;;;11.90;81.89;99477.59;4957957;28;45488;-68
2021/12/04 01:58:03;;;;;;;;;0.00;0.00;;;;;11.80;81.24;99463.47;4960181;28;45381;-68
2021/12/04 02:00:31;;;;;;;;;0.00;0.00;;;;;11.90;81.97;99472.28;4968768;28;48053;-68
2021/12/04 02:02:56;;;;;;;;;0.00;0.00;;;;;11.91;82.02;99473.19;4959963;28;45390;-68
2021/12/04 02:05:22;;;;;;;;;0.00;0.00;;;;;11.95;81.32;99481.09;4974751;28;45363;-68
2021/12/04 02:07:48;;;;;;;;;0.00;0.00;;;;;11.96;81.53;99477.59;4980390;28;45521;-69
2021/12/04 02:10:13;;;;;;;;;1.00;0.00;;;;;11.95;82.01;99464.34;4973669;28;47231;-69
2021/12/04 02:12:40;;;;;;;;;0.00;0.00;;;;;11.98;81.64;99473.16;4961414;28;45565;-68
2021/12/04 02:15:06;;;;;;;;;0.00;0.00;;;;;12.00;82.08;99478.47;4962411;28;45389;-68
2021/12/04 02:17:32;;;;;;;;;1.00;0.00;;;;;11.97;81.43;99471.41;4962355;28;45674;-69
2021/12/04 02:19:58;;;;;;;;;0.00;0.00;;;;;11.97;82.10;99473.16;4962871;28;45222;-69
2021/12/04 02:22:23;;;;;;;;;0.00;0.00;;;;;11.96;81.67;99474.94;4961091;28;45344;-69
2021/12/04 02:24:49;;;;;;;;;1.00;0.00;;;;;11.99;82.07;99479.34;4970781;28;45316;-69
2021/12/04 02:27:14;;;;;;;;;0.00;0.00;;;;;12.03;80.84;99481.09;4962134;28;45225;-69
2021/12/04 02:29:46;;;;;;;;;0.00;0.00;;;;;12.08;81.29;99495.22;4966915;28;47388;-69
2021/12/04 02:32:11;;;;;;;;;0.00;0.00;;;;;11.97;81.41;99467.88;4962730;28;45472;-69
2021/12/04 02:34:38;;;;;;;;;0.00;0.00;;;;;12.06;81.62;99473.13;4968647;28;45244;-69
2021/12/04 02:37:03;;;;;;;;;0.00;0.00;;;;;12.11;81.13;99491.66;4962171;28;45506;-69
2021/12/04 02:39:33;;;;;;;;;0.00;0.00;;;;;12.02;80.83;99480.22;4970318;28;48298;-71
2021/12/04 02:41:59;;;;;;;;;0.00;0.00;;;;;12.12;80.69;99486.34;4962325;28;45569;-70
2021/12/04 02:44:40;;;;;;;;;0.00;0.00;;;;;12.11;81.55;99478.44;4960178;28;45374;-69
2021/12/04 02:47:07;;;;;;;;;0.00;0.00;;;;;12.15;80.75;99489.00;5002449;28;45305;-69
2021/12/04 02:49:33;;;;;;;;;0.00;0.00;;;;;12.17;81.23;99489.00;4960379;28;45490;-69
2021/12/04 02:52:03;;;;;;;;;0.00;0.00;;;;;12.18;80.46;99499.56;4961898;28;45373;-69
2021/12/04 02:54:29;;;;;;;;;0.00;0.00;;;;;12.19;80.59;99493.41;4959996;28;45324;-69
2021/12/04 02:56:54;;;;;;;;;0.00;0.00;;;;;12.16;80.84;99484.59;4962163;28;45371;-68
2021/12/04 02:59:20;;;;;;;;;0.00;0.00;;;;;12.18;80.72;99493.41;4968421;28;45351;-69
2021/12/04 03:01:45;;;;;;;;;0.00;0.00;;;;;12.21;80.85;99496.94;4976633;28;45261;-69
2021/12/04 03:04:12;;;;;;;;;0.00;0.00;;;;;12.21;80.80;99489.00;4959823;28;45601;-69
2021/12/04 03:06:46;;;;;;;;;0.00;0.00;;;;;12.22;80.47;99495.16;4959880;28;46589;-69
2021/12/04 03:09:12;;;;;;;;;0.00;0.00;;;;;12.10;80.16;99477.56;4983204;28;45715;-69
2021/12/04 03:11:37;;;;;;;;;0.00;0.00;;;;;12.14;80.08;99486.38;4961674;28;45533;-69
2021/12/04 03:14:04;;;;;;;;;0.00;0.00;;;;;12.13;80.37;99479.28;4974664;28;45280;-69
2021/12/04 03:16:30;;;;;;;;;0.00;0.00;;;;;12.20;79.92;99495.16;4959401;28;46303;-69
2021/12/04 03:18:55;;;;;;;;;0.00;0.00;;;;;12.15;79.74;99477.50;4967895;28;47368;-69
2021/12/04 03:21:21;;;;;;;;;0.00;0.00;;;;;12.16;80.47;99487.25;4959804;28;45316;-69
2021/12/04 03:23:57;;;;;;;;;0.00;0.00;;;;;12.15;80.30;99488.13;4970404;28;45502;-69
2021/12/04 03:26:23;;;;;;;;;1.00;0.00;;;;;12.17;80.18;99489.88;4959706;28;45273;-69
2021/12/04 03:28:50;;;;;;;;;0.00;0.00;;;;;12.06;80.34;99471.34;4970148;28;46028;-69
2021/12/04 03:31:21;;;;;;;;;0.00;0.00;;;;;12.18;79.76;99491.63;4959708;28;45284;-69
2021/12/04 03:41:58;;;;;;;;;0.00;0.00;;;;;12.16;79.81;99479.31;4974383;28;45310;-69
2021/12/04 03:44:23;;;;;;;;;1.00;0.00;;;;;12.18;79.71;99488.09;4959474;28;45347;-69
2021/12/04 03:46:50;;;;;;;;;0.00;0.00;;;;;12.15;79.99;99485.47;5000884;28;45502;-70
2021/12/04 03:49:15;;;;;;;;;1.00;0.00;;;;;12.17;79.37;99487.22;4959375;28;46245;-69
2021/12/04 03:51:40;;;;;;;;;0.00;0.00;;;;;12.22;79.52;99487.22;4961368;28;45475;-69
2021/12/04 03:54:06;;;;;;;;;0.00;0.00;;;;;12.15;80.15;99466.91;4959290;28;45359;-69
2021/12/04 03:56:32;;;;;;;;;0.00;0.00;;;;;12.00;79.42;99458.16;4959153;28;46755;-69
2021/12/04 03:58:58;;;;;;;;;0.00;0.00;;;;;12.17;80.13;99473.09;4965542;28;45432;-69
2021/12/04 04:01:23;;;;;;;;;0.00;0.00;;;;;12.19;79.58;99481.94;4977016;28;45204;-69
2021/12/04 04:03:48;;;;;;;;;0.00;0.00;;;;;12.18;79.21;99474.84;4965668;28;45241;-70
2021/12/04 04:06:14;;;;;;;;;0.00;0.00;;;;;12.15;79.05;99473.09;4977745;28;45284;-69
2021/12/04 04:08:41;;;;;;;;;0.00;0.00;;;;;12.19;79.33;99480.16;4983250;28;45504;-69
2021/12/04 04:11:06;;;;;;;;;0.00;0.00;;;;;12.15;78.99;99470.44;4959080;28;45288;-69
2021/12/04 04:13:32;;;;;;;;;0.00;0.00;;;;;12.12;78.90;99469.59;4961253;28;45660;-69
2021/12/04 04:15:59;;;;;;;;;0.00;0.00;;;;;12.18;79.25;99478.38;4974039;28;46949;-69
2021/12/04 04:18:25;;;;;;;;;0.00;0.00;;;;;12.16;79.01;99474.88;4968370;28;47057;-69
2021/12/04 04:20:50;;;;;;;;;3.33;0.00;;;;;12.17;79.07;99475.75;4958944;28;45323;-69
2021/12/04 04:23:16;;;;;;;;;0.00;0.00;;;;;12.16;78.56;99474.00;4969411;28;45669;-69
2021/12/04 04:25:42;;;;;;;;;0.00;0.00;;;;;12.13;79.11;99463.38;4959043;28;45353;-69
2021/12/04 04:28:07;;;;;;;;;0.00;0.00;;;;;12.10;78.57;99464.31;4968221;28;45482;-69
2021/12/04 04:30:33;;;;;;;;;0.00;0.00;;;;;12.14;78.55;99468.69;4960132;28;45166;-69
2021/12/04 04:33:00;;;;;;;;;0.00;0.00;;;;;12.08;79.25;99474.91;4962334;28;45608;-69
2021/12/04 04:35:27;;;;;;;;;0.00;0.00;;;;;12.08;78.77;99474.91;4958910;28;45253;-69
2021/12/04 05:12:52;;;;;;;;;0.00;0.00;;;;;12.01;79.12;99454.59;4963889;28;45347;-69
2021/12/04 05:15:36;;;;;;;;;0.00;0.00;;;;;11.96;78.28;99455.50;4974592;28;45367;-69
2021/12/04 05:20:35;;;;;;;;;0.33;0.00;;;;;11.97;79.08;99455.50;4959446;28;45486;-69
2021/12/04 05:23:00;;;;;;;;;0.00;0.00;;;;;12.00;78.54;99457.28;4966253;28;45482;-68
2021/12/04 05:25:27;;;;;;;;;1.00;0.00;;;;;12.03;78.57;99467.84;4960579;28;45373;-69
2021/12/04 05:27:53;;;;;;;;;0.00;0.00;;;;;11.96;77.64;99452.84;4965574;28;45478;-69
2021/12/04 05:30:18;;;;;;;;;0.00;0.00;;;;;11.96;78.57;99453.75;4961455;28;45421;-69
2021/12/04 05:32:43;;;;;;;;;0.00;0.00;;;;;12.01;78.53;99454.59;4963680;28;45453;-69
2021/12/04 05:35:09;;;;;;;;;0.00;0.00;;;;;11.96;78.20;99450.19;4958450;28;45255;-68
2021/12/04 05:37:34;;;;;;;;;0.00;0.00;;;;;11.99;78.17;99456.41;4959794;28;45517;-69
2021/12/04 05:40:00;;;;;;;;;0.00;0.00;;;;;11.99;78.29;99456.41;4957994;28;45559;-68
2021/12/04 05:42:26;;;;;;;;;0.00;0.00;;;;;11.90;77.99;99443.16;4959454;28;45509;-69
2021/12/04 05:44:52;;;;;;;;;0.00;0.00;;;;;12.02;78.15;99466.09;4961199;28;45479;-68
2021/12/04 05:47:23;;;;;;;;;1.00;0.00;;;;;11.98;78.56;99456.38;4972531;28;47327;-69
2021/12/04 05:55:16;;;;;;;;;0.00;0.00;;;;;12.01;78.06;99466.97;4957703;28;45244;-68
2021/12/04 05:57:42;;;;;;;;;0.00;0.00;;;;;11.93;78.11;99456.41;4960011;28;45275;-69
2021/12/04 06:00:10;;;;;;;;;0.00;0.00;;;;;11.98;77.65;99465.19;4971988;28;45270;-68
2021/12/04 06:02:36;;;;;;;;;1.00;0.00;;;;;11.96;77.92;99464.34;4968887;28;45294;-68
2021/12/04 06:05:02;;;;;;;;;0.00;0.00;;;;;11.94;77.82;99454.66;4963444;28;45275;-68
2021/12/04 06:07:27;;;;;;;;;1.00;0.00;;;;;11.95;77.62;99454.63;4959511;28;45535;-68
2021/12/04 06:09:53;;;;;;;;;0.00;0.00;;;;;11.92;77.64;99449.34;4971484;27;46076;-68
2021/12/04 06:12:18;;;;;;;;;0.00;0.00;;;;;11.90;77.35;99456.41;4960381;28;45339;-68
2021/12/04 06:14:45;;;;;;;;;1.00;0.00;;;;;11.90;77.87;99455.53;4965739;28;46045;-68
2021/12/04 06:17:11;;;;;;;;;0.00;0.00;;;;;11.88;77.63;99450.25;4962125;28;45260;-68
2021/12/04 06:22:40;;;;;;;;;1.00;0.00;;;;;11.85;77.31;99443.19;4959913;28;45354;-68
2021/12/04 06:25:15;;;;;;;;;0.00;0.00;;;;;11.89;77.13;99453.78;4971934;28;45319;-68
2021/12/04 06:27:41;;;;;;;;;0.00;0.00;;;;;11.76;77.77;99423.75;4970389;28;45357;-68
2021/12/04 06:30:10;;;;;;;;;0.00;0.00;;;;;11.86;77.34;99439.66;4962294;28;45428;-69
2021/12/04 06:32:37;;;;;;;;;0.00;0.00;;;;;11.86;77.01;99444.94;4962015;28;45295;-68
2021/12/04 06:35:05;;;;;;;;;0.00;0.00;;;;;11.83;77.77;99434.34;4963020;28;45336;-69
2021/12/04 06:37:30;;;;;;;;;0.00;0.00;;;;;11.74;77.13;99428.19;4958891;28;45459;-68
2021/12/04 06:39:56;;;;;;;;;0.67;0.67;;;;;11.77;77.93;99426.41;4955611;28;45400;-69
2021/12/04 06:42:21;;;;;;;;;0.00;0.00;;;;;11.72;77.67;99419.38;4967508;28;45335;-68
2021/12/04 06:44:46;;;;;;;;;1.00;0.00;;;;;11.73;77.61;99432.59;4957080;28;45526;-69
2021/12/04 06:47:12;;;;;;;;;0.00;0.00;;;;;11.75;77.51;99429.94;5000428;28;45225;-68
2021/12/04 06:49:41;;;;;;;;;0.00;0.00;;;;;11.74;77.86;99430.84;4956715;28;45722;-69
2021/12/04 06:52:11;;;;;;;;;1.00;0.00;;;;;11.73;77.35;99434.34;4967150;28;45524;-69
2021/12/04 06:54:39;;;;;;;;;0.33;0.00;;;;;11.70;78.09;99429.94;4967105;28;45495;-68
2021/12/04 06:57:09;;;;;;;;;0.00;0.00;;;;;11.69;78.12;99419.38;4971149;28;45378;-68
2021/12/04 06:59:37;;;;;;;;;1.00;0.00;;;;;11.71;77.67;99422.91;4966556;28;45415;-69
2021/12/04 07:02:03;;;;;;;;;0.00;0.00;;;;;11.72;78.04;99422.00;4969240;28;47511;-68
2021/12/04 07:04:34;;;;;;;;;0.00;0.00;;;;;11.71;77.84;99414.97;4965271;28;45277;-69
2021/12/04 07:07:00;;;;;;;;;0.00;0.00;;;;;11.74;77.68;99430.84;4957356;28;46221;-69
2021/12/04 07:09:25;;;;;;;;;0.00;0.00;;;;;11.69;78.30;99427.31;4977638;28;45357;-68
2021/12/04 07:11:50;;;;;;;;;1.00;0.00;;;;;11.67;78.61;99432.59;4958706;28;45450;-69
2021/12/04 07:14:16;;;;;;;;;0.00;0.00;;;;;11.75;78.50;99429.94;4968387;28;45464;-68
2021/12/04 07:16:42;;;;;;;;;2.67;0.00;;;;;11.73;78.53;99424.63;4961457;28;45339;-68
2021/12/04 07:19:08;;;;;;;;;0.00;0.00;;;;;11.71;78.80;99428.22;4968226;28;46552;-68
2021/12/04 07:21:33;;;;;;;;;0.00;0.00;;;;;11.70;79.08;99410.53;4958165;28;45268;-69
2021/12/04 07:23:58;;;;;;;;;1.33;0.33;;;;;11.71;78.92;99431.72;4963657;28;45380;-68
2021/12/04 07:26:24;;;;;;;;;2.00;1.00;;;;;11.63;80.05;99410.56;4959627;28;45600;-68
2021/12/04 07:28:49;;;;;;;;;1.00;1.00;;;;;11.67;79.37;99411.44;4970089;28;46408;-68
2021/12/04 07:31:14;;;;;;;;;2.67;1.00;;;;;11.57;80.14;99397.34;4959029;28;45174;-68
2021/12/04 07:33:40;;;;;;;;;2.00;1.00;;;;;11.62;79.42;99414.09;4977055;28;45225;-69
2021/12/04 07:36:05;;;;;;;;;1.67;1.33;;;;;11.65;79.90;99413.22;4957375;28;45993;-68
2021/12/04 07:38:31;;;;;;;;;0.00;0.00;;;;;11.63;79.53;99402.63;4960788;28;45512;-68
2021/12/04 07:40:59;;;;;;;;;0.33;0.33;;;;;11.54;79.80;99396.44;4976906;28;45170;-69
2021/12/04 07:43:25;;;;;;;;;1.67;1.00;;;;;11.60;79.62;99420.28;4962894;28;45447;-69
2021/12/04 07:45:50;;;;;;;;;0.33;0.33;;;;;11.50;80.56;99398.22;4981872;28;45396;-69
2021/12/04 07:48:15;;;;;;;;;1.33;1.00;;;;;11.53;80.11;99416.75;4978316;28;47094;-68
2021/12/04 07:50:41;;;;;;;;;0.00;0.00;;;;;11.54;80.62;99409.69;4973715;28;45319;-68
2021/12/04 07:53:07;;;;;;;;;0.00;0.00;;;;;11.53;80.69;99416.75;4960211;28;45535;-68
2021/12/04 07:55:33;;;;;;;;;0.00;0.00;;;;;11.57;79.01;99410.59;4958844;28;45306;-68
2021/12/04 07:57:59;;;;;;;;;0.00;0.00;;;;;11.59;80.75;99416.72;4958814;28;47396;-68
2021/12/04 08:00:25;;;;;;;;;0.00;0.00;;;;;11.59;80.00;99407.91;4958140;28;45387;-68
2021/12/04 08:02:51;;;;;;;;;0.00;0.00;;;;;11.57;80.20;99410.59;4958276;28;45499;-68
2021/12/04 08:05:17;;;;;;;;;0.00;0.00;;;;;11.60;81.06;99421.16;4963620;28;45276;-68
2021/12/04 08:07:43;;;;;;;;;1.67;0.00;;;;;11.62;80.30;99426.44;4967017;28;47687;-68
2021/12/04 08:10:12;;;;;;;;;0.00;0.00;;;;;11.67;80.92;99426.44;4958041;28;45260;-68
2021/12/04 08:12:38;;;;;;;;;0.00;0.00;;;;;11.64;80.23;99432.59;4958928;28;45496;-68
2021/12/04 08:15:05;;;;;;;;;0.00;0.00;;;;;11.64;79.81;99429.97;4967082;28;47201;-68
2021/12/04 08:17:31;;;;;;;;;0.00;0.00;;;;;11.73;79.89;99442.28;4958331;28;45475;-68
2021/12/04 08:19:56;;;;;;;;;0.00;0.00;;;;;11.71;79.87;99439.66;4957535;28;45284;-68
2021/12/04 08:22:21;;;;;;;;;0.00;0.00;;;;;11.77;79.35;99452.00;4962113;28;45516;-69
2021/12/04 08:24:47;;;;;;;;;0.00;0.00;;;;;11.73;78.56;99455.53;4964907;28;45210;-68
2021/12/04 08:27:15;;;;;;;;;0.00;0.00;;;;;11.72;79.00;99446.72;4959083;28;47008;-68
2021/12/04 08:29:40;;;;;;;;;0.00;0.00;;;;;11.79;77.79;99451.13;4966602;28;45702;-67
2021/12/04 08:32:07;;;;;;;;;0.00;0.00;;;;;11.74;78.09;99454.66;4960608;28;45454;-68
2021/12/04 08:34:33;;;;;;;;;0.00;0.00;;;;;11.76;77.64;99451.13;4968528;28;45998;-68
2021/12/04 08:36:58;;;;;;;;;0.00;0.00;;;;;11.60;77.77;99437.03;4959863;28;45294;-68
2021/12/04 08:39:23;;;;;;;;;0.00;0.00;;;;;11.73;77.46;99459.06;4957835;28;45238;-68
2021/12/04 08:41:49;;;;;;;;;0.00;0.00;;;;;11.72;77.70;99456.44;4968060;28;45353;-69
2021/12/04 08:44:16;;;;;;;;;1.00;0.00;;;;;11.71;76.51;99459.97;4970731;28;45285;-68
2021/12/04 08:46:42;;;;;;;;;0.00;0.00;;;;;11.67;76.44;99474.06;5003537;28;47543;-68
2021/12/04 08:49:08;;;;;;;;;0.00;0.00;;;;;11.65;76.51;99468.81;4958515;28;45462;-68
2021/12/04 08:51:35;;;;;;;;;0.00;0.00;;;;;11.62;75.86;99471.41;4958663;28;45632;-69
2021/12/04 08:54:00;;;;;;;;;0.00;0.00;;;;;11.64;75.05;99485.53;4979450;28;47048;-69
2021/12/04 08:56:26;;;;;;;;;0.00;0.00;;;;;11.56;75.22;99487.31;4976079;28;45315;-69
2021/12/04 08:58:52;;;;;;;;;0.00;0.00;;;;;11.57;74.56;99489.97;4964260;28;45445;-68
2021/12/04 09:01:25;;;;;;;;;0.00;0.00;;;;;11.52;74.68;99486.44;4976942;28;45331;-68
2021/12/04 09:03:56;;;;;;;;;1.00;1.00;;;;;11.52;73.60;99506.75;4962352;28;45446;-68
2021/12/04 09:06:22;;;;;;;;;0.00;0.00;;;;;11.49;74.72;99512.03;4957814;28;46718;-68
2021/12/04 09:08:48;;;;;;;;;0.00;0.00;;;;;11.48;74.30;99520.84;4963803;28;45503;-68
2021/12/04 09:11:20;;;;;;;;;0.00;0.00;;;;;11.47;74.23;99514.66;4959261;28;45779;-68
2021/12/04 09:13:47;;;;;;;;;0.00;0.00;;;;;11.46;74.56;99509.41;4963040;28;45454;-70
2021/12/04 09:16:14;;;;;;;;;1.00;0.00;;;;;11.29;73.16;99473.22;4957567;28;46075;-75
2021/12/04 09:18:40;;;;;;;;;0.00;0.00;;;;;11.49;73.24;99519.97;4968430;28;45644;-74
2021/12/04 09:21:06;;;;;;;;;0.00;0.00;;;;;11.35;72.81;99504.97;4957096;28;45597;-73
2021/12/04 09:23:38;;;;;;;;;0.00;0.00;;;;;11.44;72.85;99533.19;4962877;28;45459;-74
2021/12/04 09:26:04;;;;;;;;;1.00;0.00;;;;;11.49;73.08;99542.03;4957203;28;46474;-74
2021/12/04 09:28:55;;;;;;;;;1.00;0.00;;;;;11.44;72.29;99543.78;4958690;28;45395;-74
2021/12/04 09:31:56;;;;;;;;;0.33;0.00;;;;;11.43;72.66;99561.41;4958032;28;45240;-74
2021/12/04 10:20:12;;;;;;;;;0.00;0.00;;;;;10.69;69.45;99615.84;4960846;28;46002;-72
2021/12/04 10:23:00;;;;;;;;;2.00;1.00;;;;;10.87;68.76;99651.19;4961329;28;45431;-73
2021/12/04 10:33:45;;;;;;;;;0.25;0.25;;;;;10.79;69.06;99639.72;4999218;28;45468;-73
2021/12/04 10:36:12;;;;;;;;;0.00;0.00;;;;;10.74;68.61;99650.25;4956849;28;45623;-73
2021/12/04 10:38:42;;;;;;;;;1.00;0.00;;;;;10.72;69.72;99647.56;4958786;28;45357;-72
2021/12/04 10:41:09;;;;;;;;;0.67;0.00;;;;;10.69;69.22;99639.63;4956736;28;45678;-73
2021/12/04 10:43:36;;;;;;;;;0.67;0.33;;;;;10.68;69.53;99632.59;4956463;28;45455;-73
2021/12/04 10:46:16;;;;;;;;;0.00;0.00;;;;;10.65;68.12;99621.13;4988627;28;45430;-72
2021/12/04 10:49:00;;;;;;;;;0.00;0.00;;;;;10.70;68.17;99633.50;4961897;28;45619;-73
2021/12/04 10:53:55;;;;;;;;;2.00;1.00;;;;;10.62;68.70;99643.13;4965113;28;45344;-73
2021/12/04 11:26:38;;;;;;;;;2.00;1.00;;;;;10.35;70.54;99696.69;4959128;28;45507;-72
2021/12/04 11:37:13;;;;;;;;;2.00;2.00;;;;;9.94;72.02;99713.06;4961318;28;45433;-72
2021/12/04 11:42:21;;;;;;;;;2.25;1.00;;;;;9.71;71.59;99718.06;4965304;28;45214;-72
2021/12/04 11:45:09;;;;;;;;;1.00;1.00;;;;;9.71;71.35;99733.91;4958489;28;45363;-72
2021/12/04 11:47:38;;;;;;;;;4.25;0.50;;;;;9.59;72.30;99728.50;5007521;28;45423;-73
2021/12/04 11:50:37;;;;;;;;;5.75;5.00;;;;;9.48;72.07;99709.03;4958982;28;45714;-73
2021/12/04 11:53:06;;;;;;;;;5.75;4.00;;;;;9.52;72.17;99721.38;4975606;28;46089;-72
2021/12/04 11:55:40;;;;;;;;;4.75;2.75;;;;;9.60;72.31;99732.91;4975011;28;46486;-72
2021/12/04 11:58:20;;;;;;;;;2.25;2.25;;;;;9.70;72.04;99742.72;4966093;28;45245;-72
2021/12/04 12:00:46;;;;;;;;;7.75;4.75;;;;;9.73;71.68;99747.13;4977568;28;45293;-72
2021/12/04 12:03:18;;;;;;;;;2.25;1.00;;;;;9.61;71.39;99726.78;4967300;28;47129;-72
2021/12/04 12:05:50;;;;;;;;;3.00;3.00;;;;;9.74;71.24;99748.88;4958687;28;45308;-72
2021/12/04 12:08:28;;;;;;;;;3.25;3.25;;;;;9.74;69.59;99759.44;4986169;28;45255;-72
2021/12/04 12:11:07;;;;;;;;;4.25;4.00;;;;;9.79;70.05;99760.38;4966285;28;45329;-72
2021/12/04 12:13:40;;;;;;;;;2.25;2.25;;;;;9.77;70.09;99762.13;4969361;28;45539;-72
2021/12/04 12:16:28;;;;;;;;;2.75;2.00;;;;;9.83;69.58;99770.09;4958789;28;45392;-71
2021/12/04 12:19:00;;;;;;;;;2.00;1.00;;;;;9.78;68.47;99770.06;4967507;28;45356;-72
2021/12/04 12:27:33;;;;;;;;;4.00;2.00;;;;;9.72;68.41;99771.72;4960566;28;46090;-72
2021/12/04 12:36:13;;;;;;;;;6.00;3.75;;;;;9.75;67.24;99809.63;4981608;28;45259;-72
2021/12/04 12:38:38;;;;;;;;;6.50;4.00;;;;;9.76;66.71;99827.22;4964848;28;47301;-73
2021/12/04 12:41:09;;;;;;;;;2.00;2.00;;;;;9.58;66.19;99803.25;4978071;28;45168;-74
2021/12/04 12:43:44;;;;;;;;;4.50;3.00;;;;;9.73;66.43;99832.47;4961839;28;45419;-75
2021/12/04 12:46:10;;;;;;;;;2.00;2.00;;;;;9.75;67.15;99845.69;4998543;28;45312;-74
2021/12/04 12:48:53;;;;;;;;;3.00;2.00;;;;;9.70;66.29;99847.38;4967790;27;46092;-74
2021/12/04 12:51:32;;;;;;;;;2.25;2.25;;;;;9.67;66.54;99844.69;4992701;28;45242;-73
2021/12/04 12:54:01;;;;;;;;;4.75;2.75;;;;;9.48;66.19;99815.44;4963995;28;45334;-72
2021/12/04 12:56:30;;;;;;;;;4.00;2.00;;;;;9.58;66.73;99850.75;4975613;28;45546;-72
2021/12/04 12:59:02;;;;;;;;;4.50;3.00;;;;;9.55;66.63;99843.69;4968633;28;45320;-72
2021/12/04 13:13:33;;;;;;;;;3.50;2.00;;;;;9.36;66.55;99871.56;4968181;28;45370;-72
2021/12/04 13:16:19;;;;;;;;;3.25;2.25;;;;;9.27;66.69;99862.59;4965482;28;45645;-73
2021/12/04 13:18:51;;;;;;;;;17.25;14.25;;;;;9.27;66.50;99868.78;4959524;28;45385;-72
2021/12/04 13:21:17;;;;;;;;;8.00;3.00;;;;;9.27;66.81;99871.44;4957508;28;45638;-72
2021/12/04 13:23:52;;;;;;;;;3.75;2.50;;;;;9.18;66.59;99856.34;4963588;28;45340;-72
2021/12/04 13:26:19;;;;;;;;;6.50;4.50;;;;;9.21;66.51;99862.53;4957735;28;45347;-72
2021/12/04 13:28:49;;;;;;;;;5.00;4.25;;;;;9.22;66.68;99859.91;4960311;28;45403;-72
2021/12/04 13:31:18;;;;;;;;;4.25;3.00;;;;;9.31;65.51;99864.44;4974936;28;45416;-72
2021/12/04 13:33:47;;;;;;;;;7.75;3.00;;;;;9.37;62.67;99873.31;4965861;28;45293;-72
2021/12/04 13:36:28;;;;;;;;;3.00;1.25;;;;;9.30;61.88;99867.91;4957386;28;45494;-72
2021/12/04 13:39:06;;;;;;;;;6.25;2.25;;;;;9.29;62.70;99869.69;4961060;28;45304;-72
2021/12/04 13:41:32;;;;;;;;;2.75;1.75;;;;;9.23;61.92;99866.97;4957309;28;47113;-72
2021/12/04 13:44:02;;;;;;;;;2.50;2.00;;;;;9.15;62.19;99847.50;4963404;28;45320;-71
2021/12/04 13:46:27;;;;;;;;;1.75;1.00;;;;;9.18;61.85;99868.63;4989661;28;45583;-72
2021/12/04 13:49:02;;;;;;;;;2.00;2.00;;;;;9.19;61.07;99873.06;4968529;28;46313;-71
2021/12/04 13:51:27;;;;;;;;;19.50;16.50;;;;;9.12;61.46;99864.16;4965568;28;46520;-72
2021/12/04 13:53:53;;;;;;;;;3.50;2.00;;;;;9.12;60.70;99866.78;4957930;28;46504;-72
2021/12/04 13:56:22;;;;;;;;;28.25;23.25;;;;;9.02;60.22;99853.44;4957595;28;45280;-72
2021/12/04 13:58:54;;;;;;;;;4.00;1.75;;;;;9.07;61.59;99854.41;4966477;28;45430;-71
2021/12/04 14:01:21;;;;;;;;;2.00;0.75;;;;;9.17;60.65;99861.59;4955666;28;48178;-71
2021/12/04 14:03:47;;;;;;;;;3.00;1.50;;;;;9.15;61.18;99856.28;4963822;28;45304;-71
2021/12/04 14:06:15;;;;;;;;;9.75;6.25;;;;;9.01;61.05;99817.41;4955953;28;45376;-71
2021/12/04 14:08:41;;;;;;;;;3.50;3.00;;;;;9.31;61.41;99854.78;4962433;28;45683;-72
2021/12/04 14:11:07;;;;;;;;;1.50;1.50;;;;;9.31;60.43;99856.53;4964860;28;46492;-72
2021/12/04 14:13:32;;;;;;;;;3.50;3.00;;;;;9.28;60.43;99857.38;4956622;28;45339;-72
2021/12/04 14:15:58;;;;;;;;;6.75;4.75;;;;;9.39;60.46;99876.88;4962353;28;45328;-72
2021/12/04 14:18:27;;;;;;;;;16.75;10.50;;;;;9.32;60.77;99868.84;4956772;28;45458;-72
2021/12/04 14:20:56;;;;;;;;;12.00;8.50;;;;;9.40;61.61;99878.63;4960865;28;45394;-72
2021/12/04 14:23:25;;;;;;;;;7.50;4.75;;;;;9.39;61.09;99887.41;4953875;28;45747;-72
2021/12/04 14:25:54;;;;;;;;;1.50;1.50;;;;;9.36;61.28;99890.00;4956496;28;45284;-72
2021/12/04 14:28:25;;;;;;;;;4.25;3.25;;;;;9.28;60.71;99885.50;4956585;28;45749;-73
2021/12/04 14:30:51;;;;;;;;;5.00;3.00;;;;;9.17;59.64;99883.56;4959665;28;46352;-73
2021/12/04 14:33:25;;;;;;;;;1.00;1.00;;;;;9.23;60.33;99905.63;4956541;28;45561;-72
2021/12/04 14:35:52;;;;;;;;;5.50;5.00;;;;;9.12;59.08;99897.53;4956084;28;45578;-72
2021/12/04 14:38:22;;;;;;;;;5.00;4.00;;;;;9.09;59.93;99902.78;4955048;28;45767;-72
2021/12/04 14:40:51;;;;;;;;;5.00;3.00;;;;;9.07;60.32;99908.00;4969502;28;45307;-72
2021/12/04 14:43:21;;;;;;;;;1.00;1.00;;;;;8.95;59.28;99903.44;4959958;28;45401;-72
2021/12/04 14:45:49;;;;;;;;;3.00;1.75;;;;;8.87;58.92;99912.97;4961897;28;45500;-71